createdAt,value
2022-08-20T00:01:06.996Z,21.90
2022-08-20T00:03:41.306Z,21.86
2022-08-20T00:06:22.783Z,21.83
2022-08-20T00:08:50.953Z,21.83
2022-08-20T00:11:23.999Z,21.79
2022-08-20T00:13:56.349Z,21.76
2022-08-20T00:16:28.359Z,21.75
2022-08-20T00:18:55.601Z,21.73
2022-08-20T00:21:23.251Z,21.66
2022-08-20T00:23:54.121Z,21.65
2022-08-20T00:26:21.752Z,21.61
2022-08-20T00:28:48.986Z,21.60
2022-08-20T00:31:20.078Z,21.57
2022-08-20T00:33:47.756Z,21.54
2022-08-20T00:36:17.558Z,21.56
2022-08-20T00:38:47.183Z,21.53
2022-08-20T00:41:26.836Z,21.50
2022-08-20T00:44:12.286Z,21.50
2022-08-20T00:46:41.031Z,21.48
2022-08-20T00:49:13.072Z,21.46
2022-08-20T00:52:15.721Z,21.44
2022-08-20T00:54:55.044Z,21.46
2022-08-20T00:57:51.209Z,21.45
2022-08-20T01:00:32.757Z,21.45
2022-08-20T01:03:00.715Z,21.41
2022-08-20T01:05:29.637Z,21.42
2022-08-20T01:07:58.373Z,21.38
2022-08-20T01:10:32.236Z,21.41
2022-08-20T01:13:03.791Z,21.39
2022-08-20T01:15:31.969Z,21.41
2022-08-20T01:18:01.081Z,21.40
2022-08-20T01:20:34.100Z,21.37
2022-08-20T01:23:48.857Z,21.33
2022-08-20T01:26:28.910Z,21.29
2022-08-20T01:29:02.067Z,21.24
2022-08-20T01:31:36.989Z,21.22
2022-08-20T01:34:10.821Z,21.17
2022-08-20T01:36:46.520Z,21.14
2022-08-20T01:39:19.272Z,21.13
2022-08-20T01:42:02.684Z,21.09
2022-08-20T01:44:31.018Z,21.06
2022-08-20T01:47:07.846Z,20.96
2022-08-20T01:49:36.300Z,20.96
2022-08-20T01:52:08.504Z,20.93
2022-08-20T01:54:36.102Z,20.90
2022-08-20T01:57:12.053Z,20.87
2022-08-20T01:59:40.810Z,20.82
2022-08-20T02:02:10.519Z,20.79
2022-08-20T02:04:38.302Z,20.76
2022-08-20T02:07:08.317Z,20.73
2022-08-20T02:09:39.430Z,20.67
2022-08-20T02:12:09.849Z,20.67
2022-08-20T02:14:43.397Z,20.62
2022-08-20T02:17:12.236Z,20.59
2022-08-20T02:19:50.528Z,20.58
2022-08-20T02:22:44.251Z,20.55
2022-08-20T02:25:21.188Z,20.54
2022-08-20T02:27:53.656Z,20.53
2022-08-20T02:30:29.327Z,20.51
2022-08-20T02:32:58.332Z,20.52
2022-08-20T02:35:26.899Z,20.51
2022-08-20T02:37:54.673Z,20.45
2022-08-20T02:40:27.048Z,20.45
2022-08-20T02:43:02.428Z,20.40
2022-08-20T02:45:37.169Z,20.40
2022-08-20T02:48:05.608Z,20.41
2022-08-20T02:50:33.171Z,20.40
2022-08-20T02:53:00.159Z,20.39
2022-08-20T02:55:28.376Z,20.42
2022-08-20T02:58:00.578Z,20.38
2022-08-20T03:00:32.266Z,20.33
2022-08-20T03:03:10.897Z,20.34
2022-08-20T03:05:41.347Z,20.35
2022-08-20T03:08:10.615Z,20.33
2022-08-20T03:10:40.207Z,20.30
2022-08-20T03:13:12.357Z,20.32
2022-08-20T03:15:47.854Z,20.31
2022-08-20T03:18:16.645Z,20.30
2022-08-20T03:20:45.992Z,20.31
2022-08-20T03:23:14.913Z,20.27
2022-08-20T03:25:42.204Z,20.28
2022-08-20T03:28:10.464Z,20.27
2022-08-20T03:30:38.038Z,20.27
2022-08-20T03:33:05.418Z,20.27
2022-08-20T03:35:34.849Z,20.27
2022-08-20T03:38:06.071Z,20.28
2022-08-20T03:40:35.268Z,20.26
2022-08-20T03:43:02.377Z,20.25
2022-08-20T03:45:30.102Z,20.28
2022-08-20T03:47:58.426Z,20.24
2022-08-20T03:50:29.268Z,20.28
2022-08-20T03:52:57.846Z,20.26
2022-08-20T03:55:26.441Z,20.23
2022-08-20T03:57:58.623Z,20.24
2022-08-20T04:00:47.321Z,20.23
2022-08-20T04:03:15.239Z,20.21
2022-08-20T04:05:43.821Z,20.28
2022-08-20T04:08:24.348Z,20.23
2022-08-20T04:10:51.848Z,20.25
2022-08-20T04:13:22.745Z,20.23
2022-08-20T04:15:55.197Z,20.21
2022-08-20T04:18:25.752Z,20.25
2022-08-20T04:20:53.943Z,20.25
2022-08-20T04:23:22.729Z,20.20
2022-08-20T04:25:49.834Z,20.14
2022-08-20T04:28:28.637Z,20.11
2022-08-20T04:30:58.766Z,20.08
2022-08-20T04:33:35.117Z,20.05
2022-08-20T04:36:06.073Z,20.06
2022-08-20T04:38:48.516Z,20.04
2022-08-20T04:41:24.176Z,20.03
2022-08-20T04:43:54.167Z,20.00
2022-08-20T04:46:25.692Z,19.95
2022-08-20T04:48:53.915Z,19.92
2022-08-20T04:51:23.165Z,19.94
2022-08-20T04:53:53.790Z,19.87
2022-08-20T04:56:24.343Z,19.92
2022-08-20T04:58:54.364Z,19.89
2022-08-20T05:01:23.739Z,19.89
2022-08-20T05:03:51.333Z,19.84
2022-08-20T05:06:18.772Z,19.85
2022-08-20T05:08:46.134Z,19.84
2022-08-20T05:11:32.903Z,19.82
2022-08-20T05:14:02.039Z,19.77
2022-08-20T05:16:29.178Z,19.78
2022-08-20T05:18:56.165Z,19.77
2022-08-20T05:21:23.131Z,19.74
2022-08-20T05:23:50.195Z,19.72
2022-08-20T05:26:20.211Z,19.72
2022-08-20T05:28:57.670Z,19.74
2022-08-20T05:31:31.475Z,19.71
2022-08-20T05:34:09.839Z,19.72
2022-08-20T05:36:50.042Z,19.72
2022-08-20T05:39:20.400Z,19.74
2022-08-20T05:41:49.522Z,19.76
2022-08-20T05:44:17.846Z,19.75
2022-08-20T05:46:46.925Z,19.73
2022-08-20T05:49:20.138Z,19.75
2022-08-20T05:51:49.013Z,19.78
2022-08-20T05:54:16.130Z,19.81
2022-08-20T05:56:43.351Z,19.83
2022-08-20T05:59:12.586Z,19.86
2022-08-20T06:01:41.407Z,19.88
2022-08-20T06:04:24.952Z,19.91
2022-08-20T06:06:58.217Z,19.93
2022-08-20T06:09:31.981Z,19.97
2022-08-20T06:12:07.789Z,20.02
2022-08-20T06:14:35.459Z,20.04
2022-08-20T06:17:10.212Z,20.09
2022-08-20T06:19:44.322Z,20.13
2022-08-20T06:22:20.521Z,20.17
2022-08-20T06:24:54.125Z,20.24
2022-08-20T06:27:21.458Z,20.28
2022-08-20T06:29:49.636Z,20.33
2022-08-20T06:32:17.401Z,20.38
2022-08-20T06:34:50.494Z,20.46
2022-08-20T06:37:31.067Z,20.53
2022-08-20T06:40:08.382Z,20.57
2022-08-20T06:42:35.635Z,20.59
2022-08-20T06:45:05.772Z,20.65
2022-08-20T06:47:33.704Z,20.76
2022-08-20T06:50:00.684Z,20.83
2022-08-20T06:52:47.131Z,20.89
2022-08-20T06:55:16.246Z,20.95
2022-08-20T06:57:43.660Z,21.01
2022-08-20T07:00:20.006Z,21.09
2022-08-20T07:02:48.130Z,21.15
2022-08-20T07:05:16.365Z,21.15
2022-08-20T07:07:49.659Z,21.29
2022-08-20T07:10:18.849Z,21.33
2022-08-20T07:12:46.971Z,21.52
2022-08-20T07:15:15.179Z,21.52
2022-08-20T07:17:42.566Z,21.59
2022-08-20T07:20:14.067Z,21.64
2022-08-20T07:22:42.292Z,21.74
2022-08-20T07:25:14.390Z,21.85
2022-08-20T07:27:43.577Z,21.95
2022-08-20T07:30:56.420Z,21.95
2022-08-20T07:33:29.807Z,22.08
2022-08-20T07:35:59.187Z,22.18
2022-08-20T07:38:29.388Z,22.27
2022-08-20T07:41:04.753Z,22.31
2022-08-20T07:43:33.509Z,22.41
2022-08-20T07:46:07.500Z,22.48
2022-08-20T07:48:40.087Z,22.58
2022-08-20T07:51:10.774Z,22.72
2022-08-20T07:53:40.460Z,22.79
2022-08-20T07:56:17.692Z,22.93
2022-08-20T07:58:50.437Z,24.18
2022-08-20T08:01:21.042Z,24.66
2022-08-20T08:03:49.260Z,24.94
2022-08-20T08:06:29.618Z,25.17
2022-08-20T08:09:11.730Z,25.31
2022-08-20T08:11:47.207Z,25.41
2022-08-20T08:14:24.814Z,25.55
2022-08-20T08:16:55.213Z,25.58
2022-08-20T08:19:22.478Z,25.70
2022-08-20T08:21:49.790Z,25.76
2022-08-20T08:24:21.704Z,25.86
2022-08-20T08:26:50.813Z,25.87
2022-08-20T08:29:18.180Z,25.91
2022-08-20T08:31:45.514Z,25.98
2022-08-20T08:34:13.119Z,25.97
2022-08-20T08:36:40.568Z,25.99
2022-08-20T08:39:07.852Z,25.94
2022-08-20T08:41:49.438Z,26.04
2022-08-20T08:44:39.936Z,26.04
2022-08-20T08:47:29.365Z,26.02
2022-08-20T08:49:57.770Z,26.01
2022-08-20T08:52:36.678Z,26.00
2022-08-20T08:55:10.712Z,26.10
2022-08-20T08:57:37.714Z,26.06
2022-08-20T09:00:24.029Z,26.13
2022-08-20T09:03:24.588Z,26.11
2022-08-20T09:05:57.104Z,26.14
2022-08-20T09:08:32.717Z,26.13
2022-08-20T09:11:08.308Z,26.16
2022-08-20T09:13:36.047Z,26.13
2022-08-20T09:16:03.770Z,26.22
2022-08-20T09:18:30.785Z,26.23
2022-08-20T09:20:57.771Z,26.18
2022-08-20T09:23:24.743Z,26.11
2022-08-20T09:25:51.724Z,26.26
2022-08-20T09:28:18.735Z,26.23
2022-08-20T09:30:45.940Z,26.23
2022-08-20T09:33:14.071Z,26.34
2022-08-20T09:35:41.222Z,26.27
2022-08-20T09:38:08.310Z,26.43
2022-08-20T09:40:35.473Z,26.29
2022-08-20T09:43:05.284Z,26.25
2022-08-20T09:45:32.402Z,26.36
2022-08-20T09:47:59.579Z,26.51
2022-08-20T09:50:30.335Z,26.49
2022-08-20T09:53:00.296Z,26.52
2022-08-20T09:55:36.542Z,26.54
2022-08-20T09:58:26.500Z,26.73
2022-08-20T10:00:53.559Z,26.93
2022-08-20T10:03:20.629Z,26.83
2022-08-20T10:05:47.702Z,26.77
2022-08-20T10:08:14.918Z,26.88
2022-08-20T10:10:42.222Z,26.78
2022-08-20T10:13:09.179Z,26.63
2022-08-20T10:15:40.506Z,26.52
2022-08-20T10:18:09.087Z,26.63
2022-08-20T10:20:40.052Z,26.63
2022-08-20T10:23:07.222Z,26.93
2022-08-20T10:25:34.304Z,26.93
2022-08-20T10:28:01.631Z,26.99
2022-08-20T10:30:28.719Z,26.85
2022-08-20T10:32:55.775Z,26.71
2022-08-20T10:35:23.211Z,26.60
2022-08-20T10:37:50.448Z,26.72
2022-08-20T10:40:17.746Z,26.80
2022-08-20T10:42:45.182Z,26.83
2022-08-20T10:45:16.135Z,26.77
2022-08-20T10:47:43.708Z,26.99
2022-08-20T10:50:16.410Z,27.03
2022-08-20T10:52:43.915Z,27.10
2022-08-20T10:55:11.412Z,27.06
2022-08-20T10:57:41.105Z,27.15
2022-08-20T11:00:10.324Z,27.20
2022-08-20T11:02:37.955Z,27.27
2022-08-20T11:05:07.219Z,27.44
2022-08-20T11:07:50.823Z,27.56
2022-08-20T11:10:26.945Z,27.61
2022-08-20T11:12:54.595Z,27.44
2022-08-20T11:15:21.976Z,27.33
2022-08-20T11:17:48.973Z,27.27
2022-08-20T11:20:19.951Z,27.22
2022-08-20T11:22:47.798Z,27.24
2022-08-20T11:25:14.901Z,27.15
2022-08-20T11:27:47.307Z,27.16
2022-08-20T11:30:26.608Z,27.07
2022-08-20T11:32:54.043Z,27.30
2022-08-20T11:35:48.254Z,27.48
2022-08-20T11:38:11.256Z,27.71
2022-08-20T11:40:38.494Z,27.64
2022-08-20T11:43:20.842Z,27.34
2022-08-20T11:45:56.209Z,27.11
2022-08-20T11:48:23.514Z,27.12
2022-08-20T11:50:50.949Z,27.03
2022-08-20T11:53:18.077Z,27.08
2022-08-20T11:55:45.234Z,27.04
2022-08-20T11:58:12.773Z,26.93
2022-08-20T12:00:40.177Z,26.90
2022-08-20T12:03:10.228Z,27.05
2022-08-20T12:05:41.651Z,27.23
2022-08-20T12:08:09.253Z,27.19
2022-08-20T12:10:38.252Z,27.07
2022-08-20T12:13:07.044Z,27.24
2022-08-20T12:15:36.784Z,27.56
2022-08-20T12:18:08.673Z,27.53
2022-08-20T12:20:37.292Z,27.31
2022-08-20T12:23:04.694Z,27.55
2022-08-20T12:25:31.711Z,27.74
2022-08-20T12:27:59.570Z,27.87
2022-08-20T12:30:26.801Z,27.75
2022-08-20T12:32:53.832Z,27.89
2022-08-20T12:35:21.211Z,27.97
2022-08-20T12:37:48.536Z,28.16
2022-08-20T12:40:32.698Z,28.25
2022-08-20T12:43:02.579Z,28.27
2022-08-20T12:45:30.795Z,28.04
2022-08-20T12:48:17.010Z,28.01
2022-08-20T12:50:46.263Z,27.77
2022-08-20T12:53:13.368Z,27.82
2022-08-20T12:55:40.439Z,27.95
2022-08-20T12:58:10.166Z,28.18
2022-08-20T13:00:44.318Z,28.18
2022-08-20T13:03:17.394Z,28.24
2022-08-20T13:05:44.396Z,28.38
2022-08-20T13:08:12.563Z,28.57
2022-08-20T13:10:46.696Z,28.62
2022-08-20T13:13:20.171Z,28.43
2022-08-20T13:15:49.895Z,28.20
2022-08-20T13:18:17.001Z,28.11
2022-08-20T13:20:44.215Z,28.00
2022-08-20T13:23:11.223Z,28.34
2022-08-20T13:25:38.337Z,28.19
2022-08-20T13:28:05.692Z,28.11
2022-08-20T13:30:36.742Z,28.07
2022-08-20T13:33:03.885Z,28.31
2022-08-20T13:35:31.368Z,28.26
2022-08-20T13:37:59.541Z,28.24
2022-08-20T13:40:26.680Z,28.40
2022-08-20T13:42:53.886Z,28.23
2022-08-20T13:45:21.043Z,28.15
2022-08-20T13:47:54.404Z,27.92
2022-08-20T13:50:24.466Z,27.85
2022-08-20T13:52:51.707Z,28.20
2022-08-20T13:55:21.844Z,28.31
2022-08-20T13:57:50.373Z,28.59
2022-08-20T14:00:31.869Z,28.30
2022-08-20T14:03:01.675Z,28.38
2022-08-20T14:05:30.510Z,28.57
2022-08-20T14:08:11.850Z,28.60
2022-08-20T14:10:42.744Z,28.50
2022-08-20T14:13:14.623Z,28.48
2022-08-20T14:15:43.406Z,28.42
2022-08-20T14:18:10.459Z,28.40
2022-08-20T14:20:38.732Z,28.50
2022-08-20T14:23:06.335Z,28.41
2022-08-20T14:25:33.890Z,28.25
2022-08-20T14:28:18.518Z,28.43
2022-08-20T14:30:46.784Z,28.53
2022-08-20T14:33:19.860Z,28.61
2022-08-20T14:35:46.832Z,28.56
2022-08-20T14:38:13.907Z,28.53
2022-08-20T14:40:40.886Z,28.23
2022-08-20T14:43:07.891Z,28.37
2022-08-20T14:45:34.948Z,28.23
2022-08-20T14:48:01.995Z,28.25
2022-08-20T14:50:34.766Z,28.33
2022-08-20T14:53:02.868Z,28.39
2022-08-20T14:55:37.674Z,28.34
2022-08-20T14:58:14.031Z,28.48
2022-08-20T15:00:42.847Z,28.47
2022-08-20T15:03:10.116Z,28.51
2022-08-20T15:05:39.290Z,28.52
2022-08-20T15:08:07.127Z,28.40
2022-08-20T15:10:34.579Z,28.28
2022-08-20T15:13:02.595Z,28.23
2022-08-20T15:15:29.759Z,28.39
2022-08-20T15:18:00.352Z,28.39
2022-08-20T15:20:31.889Z,28.48
2022-08-20T15:22:59.678Z,28.45
2022-08-20T15:25:36.691Z,28.39
2022-08-20T15:28:08.797Z,28.45
2022-08-20T15:30:39.200Z,28.46
2022-08-20T15:33:07.165Z,28.43
2022-08-20T15:35:34.814Z,28.37
2022-08-20T15:38:02.002Z,28.35
2022-08-20T15:40:32.376Z,28.26
2022-08-20T15:43:01.551Z,28.34
2022-08-20T15:45:29.457Z,28.24
2022-08-20T15:48:17.255Z,28.36
2022-08-20T15:51:11.811Z,28.47
2022-08-20T15:54:05.276Z,28.46
2022-08-20T15:57:03.160Z,28.37
2022-08-20T15:59:54.668Z,28.46
2022-08-20T16:02:51.413Z,28.58
2022-08-20T16:05:58.034Z,28.60
2022-08-20T16:08:51.033Z,28.44
2022-08-20T16:11:29.846Z,28.25
2022-08-20T16:14:15.922Z,28.36
2022-08-20T16:17:01.787Z,28.30
2022-08-20T16:19:44.402Z,28.38
2022-08-20T16:22:16.067Z,28.41
2022-08-20T16:24:43.121Z,28.48
2022-08-20T16:27:40.020Z,28.54
2022-08-20T16:30:13.396Z,28.46
2022-08-20T16:32:45.223Z,28.40
2022-08-20T16:35:30.631Z,28.36
2022-08-20T16:38:08.191Z,28.37
2022-08-20T16:40:54.081Z,28.47
2022-08-20T16:43:38.987Z,28.39
2022-08-20T16:46:18.682Z,28.30
2022-08-20T16:48:59.082Z,28.34
2022-08-20T16:51:53.123Z,28.29
2022-08-20T16:54:28.520Z,28.34
2022-08-20T16:57:03.517Z,28.49
2022-08-20T16:59:31.270Z,28.32
2022-08-20T17:02:08.359Z,28.25
2022-08-20T17:04:59.193Z,28.22
2022-08-20T17:07:51.274Z,28.12
2022-08-20T17:10:21.433Z,28.08
2022-08-20T17:13:20.055Z,27.94
2022-08-20T17:16:02.416Z,28.02
2022-08-20T17:18:39.546Z,28.02
2022-08-20T17:21:17.690Z,28.14
2022-08-20T17:24:09.128Z,28.18
2022-08-20T17:26:55.864Z,28.08
2022-08-20T17:29:29.318Z,28.10
2022-08-20T17:32:16.833Z,28.06
2022-08-20T17:34:51.779Z,28.07
2022-08-20T17:37:49.897Z,28.04
2022-08-20T17:40:31.677Z,27.88
2022-08-20T17:43:06.203Z,27.91
2022-08-20T17:45:45.078Z,27.94
2022-08-20T17:48:41.386Z,27.94
2022-08-20T17:51:22.171Z,27.87
2022-08-20T17:54:11.173Z,27.89
2022-08-20T17:56:42.659Z,27.84
2022-08-20T18:00:00.342Z,27.77
2022-08-20T18:02:13.915Z,27.70
2022-08-20T18:04:41.315Z,27.71
2022-08-20T18:07:11.208Z,27.76
2022-08-20T18:09:57.370Z,27.66
2022-08-20T18:13:04.491Z,27.62
2022-08-20T18:15:47.162Z,27.53
2022-08-20T18:18:37.675Z,27.48
2022-08-20T18:21:53.601Z,27.43
2022-08-20T18:24:33.723Z,27.39
2022-08-20T18:27:11.727Z,27.36
2022-08-20T18:29:44.367Z,27.37
2022-08-20T18:32:38.524Z,27.33
2022-08-20T18:35:23.938Z,27.30
2022-08-20T18:37:51.031Z,27.30
2022-08-20T18:40:33.105Z,27.26
2022-08-20T18:43:15.246Z,27.21
2022-08-20T18:45:42.982Z,27.20
2022-08-20T18:48:24.820Z,27.18
2022-08-20T18:50:57.020Z,27.15
2022-08-20T18:53:34.205Z,27.13
2022-08-20T18:56:16.461Z,27.11
2022-08-20T18:59:03.812Z,27.08
2022-08-20T19:01:34.798Z,27.08
2022-08-20T19:04:03.096Z,27.06
2022-08-20T19:06:36.239Z,27.06
2022-08-20T19:09:26.506Z,27.03
2022-08-20T19:12:34.442Z,27.03
2022-08-20T19:15:17.410Z,27.01
2022-08-20T19:18:10.556Z,26.99
2022-08-20T19:20:56.410Z,26.97
2022-08-20T19:23:27.354Z,26.97
2022-08-20T19:26:02.810Z,26.97
2022-08-20T19:28:42.680Z,26.95
2022-08-20T19:31:24.629Z,26.95
2022-08-20T19:34:21.733Z,26.94
2022-08-20T19:37:27.961Z,26.92
2022-08-20T19:40:00.854Z,26.90
2022-08-20T19:42:32.276Z,26.90
2022-08-20T19:45:04.690Z,26.88
2022-08-20T19:47:49.808Z,26.88
2022-08-20T19:50:40.462Z,26.85
2022-08-20T19:53:31.097Z,26.85
2022-08-20T19:56:21.597Z,26.84
2022-08-20T19:59:09.036Z,26.83
2022-08-20T20:01:36.461Z,26.83
2022-08-20T20:04:08.064Z,26.84
2022-08-20T20:06:45.578Z,26.81
2022-08-20T20:09:24.909Z,26.80
2022-08-20T20:12:02.823Z,26.80
2022-08-20T20:14:33.839Z,26.78
2022-08-20T20:17:04.284Z,26.77
2022-08-20T20:19:31.454Z,26.75
2022-08-20T20:22:20.074Z,26.76
2022-08-20T20:25:18.218Z,26.76
2022-08-20T20:27:57.177Z,26.75
2022-08-20T20:30:32.491Z,26.75
2022-08-20T20:33:13.251Z,26.73
2022-08-20T20:35:40.320Z,26.73
2022-08-20T20:38:15.125Z,26.73
2022-08-20T20:40:44.939Z,26.73
2022-08-20T20:43:23.345Z,26.72
2022-08-20T20:46:17.716Z,26.71
2022-08-20T20:48:55.432Z,26.70
2022-08-20T20:51:33.404Z,26.70
2022-08-20T20:54:07.046Z,26.68
2022-08-20T20:56:38.365Z,26.68
2022-08-20T20:59:08.177Z,26.68
2022-08-20T21:01:48.200Z,26.68
2022-08-20T21:04:15.607Z,26.66
2022-08-20T21:06:42.621Z,26.65
2022-08-20T21:09:09.667Z,26.66
2022-08-20T21:11:36.675Z,26.66
2022-08-20T21:14:03.826Z,26.65
2022-08-20T21:16:30.894Z,26.66
2022-08-20T21:18:58.451Z,26.65
2022-08-20T21:21:25.602Z,26.63
2022-08-20T21:23:52.608Z,26.64
2022-08-20T21:26:19.615Z,26.63
2022-08-20T21:28:46.723Z,26.62
2022-08-20T21:31:13.719Z,26.62
2022-08-20T21:33:40.787Z,26.61
2022-08-20T21:36:08.013Z,26.61
2022-08-20T21:38:36.045Z,26.59
2022-08-20T21:41:03.418Z,26.61
2022-08-20T21:43:32.843Z,26.60
2022-08-20T21:46:01.458Z,26.59
2022-08-20T21:48:29.437Z,26.58
2022-08-20T21:50:56.517Z,26.57
2022-08-20T21:53:23.597Z,26.57
2022-08-20T21:55:50.940Z,26.57
2022-08-20T21:58:19.503Z,26.56
2022-08-20T22:00:59.622Z,26.56
2022-08-20T22:03:38.490Z,26.56
2022-08-20T22:06:09.117Z,26.55
2022-08-20T22:08:36.409Z,26.55
2022-08-20T22:11:05.366Z,26.55
2022-08-20T22:13:33.957Z,26.55
2022-08-20T22:16:04.645Z,26.55
2022-08-20T22:18:32.173Z,26.54
2022-08-20T22:20:59.668Z,26.53
2022-08-20T22:23:27.086Z,26.52
2022-08-20T22:25:54.559Z,26.52
2022-08-20T22:28:21.816Z,26.51
2022-08-20T22:30:49.957Z,26.52
2022-08-20T22:33:22.435Z,26.51
2022-08-20T22:35:53.896Z,26.50
2022-08-20T22:38:22.511Z,26.48
2022-08-20T22:40:50.081Z,26.50
2022-08-20T22:43:17.873Z,26.49
2022-08-20T22:45:47.359Z,26.48
2022-08-20T22:48:18.328Z,26.49
2022-08-20T22:50:45.676Z,26.48
2022-08-20T22:53:14.179Z,26.47
2022-08-20T22:55:41.252Z,26.46
2022-08-20T22:58:09.039Z,26.48
2022-08-20T23:00:38.593Z,26.48
2022-08-20T23:03:07.165Z,26.46
2022-08-20T23:05:36.958Z,26.46
2022-08-20T23:08:07.002Z,26.46
2022-08-20T23:10:36.306Z,26.45
2022-08-20T23:13:04.230Z,26.46
2022-08-20T23:15:36.261Z,26.46
2022-08-20T23:18:19.717Z,26.46
2022-08-20T23:20:54.210Z,26.45
2022-08-20T23:23:21.302Z,26.45
2022-08-20T23:25:48.771Z,26.45
2022-08-20T23:28:20.498Z,26.44
2022-08-20T23:30:48.231Z,26.45
2022-08-20T23:33:15.607Z,26.43
2022-08-20T23:35:44.127Z,26.42
2022-08-20T23:38:11.888Z,26.42
2022-08-20T23:40:39.153Z,26.42
2022-08-20T23:43:06.532Z,26.41
2022-08-20T23:45:34.129Z,26.42
2022-08-20T23:48:03.156Z,26.42
2022-08-20T23:50:30.948Z,26.42
2022-08-20T23:52:58.826Z,26.41
2022-08-20T23:55:26.615Z,26.40
2022-08-20T23:57:54.274Z,26.39
